createdAt,value
2023-12-02T00:02:21.336Z,78.97
2023-12-02T00:05:25.004Z,78.54
2023-12-02T00:08:28.893Z,78.51
2023-12-02T00:11:32.551Z,78.52
2023-12-02T00:14:36.484Z,79.37
2023-12-02T00:17:41.430Z,78.62
2023-12-02T00:20:45.435Z,78.96
2023-12-02T00:23:49.101Z,79.17
2023-12-02T00:26:53.033Z,78.58
2023-12-02T00:29:56.525Z,78.36
2023-12-02T00:33:02.283Z,78.86
2023-12-02T00:36:07.308Z,79.10
2023-12-02T00:39:11.549Z,78.69
2023-12-02T00:42:15.305Z,78.70
2023-12-02T00:45:19.500Z,78.95
2023-12-02T00:48:24.525Z,79.45
2023-12-02T00:51:28.653Z,78.64
2023-12-02T00:54:35.494Z,78.43
2023-12-02T00:57:39.821Z,78.85
2023-12-02T01:00:43.332Z,78.52
2023-12-02T01:03:48.566Z,78.39
2023-12-02T01:06:52.065Z,78.59
2023-12-02T01:09:55.870Z,78.70
2023-12-02T01:12:59.304Z,78.60
2023-12-02T01:16:03.137Z,79.17
2023-12-02T01:19:08.071Z,78.93
2023-12-02T01:22:12.269Z,78.85
2023-12-02T01:25:15.898Z,78.82
2023-12-02T01:28:19.920Z,78.87
2023-12-02T01:31:23.513Z,79.11
2023-12-02T01:34:29.059Z,79.05
2023-12-02T01:37:32.690Z,79.03
2023-12-02T01:40:36.735Z,78.06
2023-12-02T01:43:40.453Z,78.87
2023-12-02T01:46:44.417Z,78.55
2023-12-02T01:49:51.113Z,79.07
2023-12-02T01:52:55.105Z,78.85
2023-12-02T01:55:58.893Z,78.54
2023-12-02T01:59:03.781Z,79.01
2023-12-02T02:02:09.192Z,79.28
2023-12-02T02:05:14.570Z,78.68
2023-12-02T02:08:18.112Z,78.48
2023-12-02T02:11:22.329Z,79.11
2023-12-02T02:14:26.123Z,78.93
2023-12-02T02:17:30.625Z,78.59
2023-12-02T02:20:36.161Z,78.63
2023-12-02T02:23:41.912Z,78.70
2023-12-02T02:26:46.019Z,78.91
2023-12-02T02:29:50.578Z,78.71
2023-12-02T02:32:54.488Z,78.87
2023-12-02T02:35:59.052Z,78.56
2023-12-02T02:39:05.250Z,78.78
2023-12-02T02:42:10.315Z,78.94
2023-12-02T02:45:14.383Z,78.97
2023-12-02T02:48:18.973Z,79.12
2023-12-02T02:51:23.389Z,78.62
2023-12-02T02:54:29.406Z,78.91
2023-12-02T02:57:33.528Z,78.83
2023-12-02T03:00:37.872Z,78.80
2023-12-02T03:03:42.184Z,79.04
2023-12-02T03:06:46.692Z,78.58
2023-12-02T03:09:52.002Z,78.41
2023-12-02T03:12:56.453Z,79.10
2023-12-02T03:16:00.465Z,78.78
2023-12-02T03:19:05.056Z,78.44
2023-12-02T03:22:09.107Z,78.89
2023-12-02T03:25:15.036Z,79.25
2023-12-02T03:28:19.027Z,78.58
2023-12-02T03:31:23.561Z,78.53
2023-12-02T03:34:27.625Z,78.99
2023-12-02T03:37:32.510Z,78.78
2023-12-02T03:40:38.106Z,78.64
2023-12-02T03:43:51.887Z,78.48
2023-12-02T03:47:04.783Z,78.50
2023-12-02T03:50:10.449Z,78.10
2023-12-02T03:53:14.223Z,78.45
2023-12-02T03:56:20.122Z,78.90
2023-12-02T03:59:24.220Z,78.86
2023-12-02T04:02:28.984Z,78.71
2023-12-02T04:05:33.100Z,79.08
2023-12-02T04:08:37.358Z,79.21
2023-12-02T04:11:42.914Z,79.00
2023-12-02T04:14:47.301Z,79.15
2023-12-02T04:17:51.662Z,78.90
2023-12-02T04:20:56.089Z,78.98
2023-12-02T04:24:00.370Z,78.33
2023-12-02T04:27:06.802Z,78.77
2023-12-02T04:30:11.909Z,77.70
2023-12-02T04:33:16.475Z,77.78
2023-12-02T04:36:21.170Z,78.26
2023-12-02T04:39:26.682Z,77.98
2023-12-02T04:42:32.231Z,78.32
2023-12-02T04:45:37.034Z,78.10
2023-12-02T04:48:41.022Z,78.00
2023-12-02T04:51:45.332Z,78.53
2023-12-02T04:54:49.185Z,78.56
2023-12-02T04:57:55.085Z,78.19
2023-12-02T05:00:59.000Z,78.11
2023-12-02T05:04:04.248Z,78.12
2023-12-02T05:07:08.235Z,77.98
2023-12-02T05:10:12.663Z,77.49
2023-12-02T05:13:18.289Z,78.34
2023-12-02T05:16:22.494Z,77.62
2023-12-02T05:19:26.586Z,78.04
2023-12-02T05:22:30.959Z,77.86
2023-12-02T05:25:35.317Z,77.73
2023-12-02T05:28:41.331Z,77.19
2023-12-02T05:31:45.624Z,77.26
2023-12-02T05:34:49.708Z,78.46
2023-12-02T05:37:53.748Z,78.14
2023-12-02T05:40:58.415Z,77.39
2023-12-02T05:44:03.815Z,77.33
2023-12-02T05:47:08.097Z,78.02
2023-12-02T05:50:12.467Z,77.37
2023-12-02T05:53:19.185Z,77.81
2023-12-02T05:56:23.348Z,78.08
2023-12-02T05:59:29.249Z,78.16
2023-12-02T06:02:33.434Z,77.88
2023-12-02T06:05:37.952Z,77.96
2023-12-02T06:08:41.965Z,77.73
2023-12-02T06:11:46.189Z,77.63
2023-12-02T06:14:51.640Z,77.42
2023-12-02T06:17:57.924Z,77.56
2023-12-02T06:21:02.142Z,77.34
2023-12-02T06:24:07.297Z,77.33
2023-12-02T06:27:11.007Z,78.03
2023-12-02T06:30:18.559Z,77.68
2023-12-02T06:33:22.429Z,77.54
2023-12-02T06:36:26.590Z,77.36
2023-12-02T06:39:30.653Z,77.13
2023-12-02T06:42:35.267Z,78.15
2023-12-02T06:45:41.492Z,77.12
2023-12-02T06:48:45.447Z,77.24
2023-12-02T06:51:49.161Z,77.82
2023-12-02T06:58:00.469Z,77.81
2023-12-02T07:01:06.754Z,77.62
2023-12-02T07:04:10.289Z,77.43
2023-12-02T07:07:14.854Z,77.95
2023-12-02T07:10:19.443Z,77.48
2023-12-02T07:13:23.172Z,77.51
2023-12-02T07:16:28.052Z,77.40
2023-12-02T07:19:31.873Z,77.81
2023-12-02T07:22:35.566Z,77.51
2023-12-02T07:25:39.627Z,77.84
2023-12-02T07:28:43.180Z,78.25
2023-12-02T07:31:48.442Z,77.69
2023-12-02T07:34:52.108Z,77.73
2023-12-02T07:37:56.042Z,77.84
2023-12-02T07:40:59.703Z,77.80
2023-12-02T07:44:03.621Z,77.25
2023-12-02T07:47:08.733Z,77.20
2023-12-02T07:50:12.734Z,77.09
2023-12-02T07:53:16.599Z,77.59
2023-12-02T07:56:20.602Z,77.60
2023-12-02T07:59:24.656Z,78.18
2023-12-02T08:02:30.405Z,78.08
2023-12-02T08:08:41.510Z,77.53
2023-12-02T08:11:45.049Z,77.54
2023-12-02T08:14:48.932Z,77.27
2023-12-02T08:17:54.164Z,77.95
2023-12-02T08:20:58.760Z,77.27
2023-12-02T08:24:02.563Z,77.66
2023-12-02T08:27:06.890Z,78.09
2023-12-02T08:30:12.085Z,77.81
2023-12-02T08:33:17.535Z,77.78
2023-12-02T08:36:21.230Z,77.76
2023-12-02T08:39:25.063Z,77.52
2023-12-02T08:42:28.700Z,77.73
2023-12-02T08:45:32.841Z,77.76
2023-12-02T08:48:37.663Z,77.60
2023-12-02T08:51:41.605Z,77.95
2023-12-02T08:54:45.061Z,77.42
2023-12-02T08:57:48.976Z,77.79
2023-12-02T09:00:53.413Z,77.85
2023-12-02T09:04:00.307Z,77.64
2023-12-02T09:07:03.887Z,77.70
2023-12-02T09:10:10.861Z,77.44
2023-12-02T09:13:26.600Z,77.63
2023-12-02T09:16:32.144Z,77.23
2023-12-02T09:19:58.032Z,77.28
2023-12-02T09:23:03.745Z,77.24
2023-12-02T09:26:28.140Z,76.76
2023-12-02T09:29:36.701Z,77.60
2023-12-02T09:32:48.334Z,77.26
2023-12-02T09:35:57.816Z,77.17
2023-12-02T09:39:35.444Z,77.17
2023-12-02T09:42:39.925Z,77.29
2023-12-02T09:46:04.470Z,76.94
2023-12-02T09:49:57.451Z,76.71
2023-12-02T09:53:12.272Z,76.81
2023-12-02T09:56:22.730Z,76.37
2023-12-02T09:59:38.575Z,76.56
2023-12-02T10:03:11.066Z,76.21
2023-12-02T10:06:33.480Z,76.19
2023-12-02T10:09:54.537Z,76.53
2023-12-02T10:13:20.552Z,76.18
2023-12-02T10:16:26.619Z,76.28
2023-12-02T10:19:38.577Z,76.42
2023-12-02T10:22:47.470Z,76.46
2023-12-02T10:26:06.497Z,76.03
2023-12-02T10:29:24.071Z,75.43
2023-12-02T10:32:41.096Z,76.52
2023-12-02T10:35:46.292Z,76.11
2023-12-02T10:39:13.643Z,76.00
2023-12-02T10:42:23.626Z,76.27
2023-12-02T10:45:29.002Z,76.04
2023-12-02T10:48:33.890Z,76.19
2023-12-02T10:51:43.112Z,76.49
2023-12-02T10:54:51.836Z,76.28
2023-12-02T10:57:59.903Z,76.10
2023-12-02T11:01:10.741Z,76.41
2023-12-02T11:04:27.025Z,76.20
2023-12-02T11:07:34.499Z,76.47
2023-12-02T11:10:45.534Z,75.79
2023-12-02T11:13:55.916Z,76.07
2023-12-02T11:17:18.303Z,75.60
2023-12-02T11:20:28.063Z,76.28
2023-12-02T11:24:01.640Z,75.88
2023-12-02T11:27:20.980Z,76.24
2023-12-02T11:30:48.996Z,76.41
2023-12-02T11:34:10.216Z,76.28
2023-12-02T11:37:29.593Z,76.50
2023-12-02T11:40:51.252Z,76.61
2023-12-02T11:44:12.271Z,76.72
2023-12-02T11:47:34.938Z,76.20
2023-12-02T11:50:57.935Z,76.45
2023-12-02T11:54:21.239Z,76.53
2023-12-02T11:57:38.246Z,76.53
2023-12-02T12:00:56.479Z,76.59
2023-12-02T12:04:46.332Z,76.48
2023-12-02T12:08:05.203Z,76.56
2023-12-02T12:11:17.871Z,76.47
2023-12-02T12:14:23.635Z,75.93
2023-12-02T12:17:27.618Z,76.39
2023-12-02T12:20:33.436Z,76.66
2023-12-02T12:23:37.178Z,76.35
2023-12-02T12:26:40.699Z,76.65
2023-12-02T12:29:57.020Z,76.59
2023-12-02T12:33:00.902Z,76.52
2023-12-02T12:36:07.195Z,76.62
2023-12-02T12:39:13.074Z,76.54
2023-12-02T12:42:19.278Z,76.91
2023-12-02T12:45:24.345Z,76.64
2023-12-02T12:48:28.688Z,76.85
2023-12-02T12:51:35.420Z,76.75
2023-12-02T12:54:48.693Z,76.66
2023-12-02T12:57:55.795Z,76.82
2023-12-02T13:01:00.962Z,77.11
2023-12-02T13:04:11.778Z,77.04
2023-12-02T13:07:19.260Z,76.87
2023-12-02T13:10:23.231Z,76.46
2023-12-02T13:13:33.139Z,76.92
2023-12-02T13:16:37.164Z,77.11
2023-12-02T13:19:45.373Z,77.31
2023-12-02T13:22:54.356Z,77.04
2023-12-02T13:26:05.038Z,77.68
2023-12-02T13:29:12.178Z,77.19
2023-12-02T13:32:17.601Z,77.39
2023-12-02T13:35:30.057Z,77.67
2023-12-02T13:38:37.020Z,77.16
2023-12-02T13:41:48.595Z,77.46
2023-12-02T13:44:58.155Z,77.65
2023-12-02T13:48:06.774Z,77.01
2023-12-02T13:51:24.775Z,77.29
2023-12-02T13:54:47.120Z,77.72
2023-12-02T13:58:06.136Z,77.48
2023-12-02T14:01:19.874Z,77.94
2023-12-02T14:04:44.396Z,77.15
2023-12-02T14:07:51.459Z,77.68
2023-12-02T14:10:57.296Z,77.76
2023-12-02T14:14:19.363Z,77.99
2023-12-02T14:17:40.845Z,77.99
2023-12-02T14:20:58.912Z,77.95
2023-12-02T14:24:37.646Z,77.74
2023-12-02T14:28:00.724Z,77.61
2023-12-02T14:31:37.103Z,78.16
2023-12-02T14:35:02.340Z,78.16
2023-12-02T14:38:42.466Z,77.99
2023-12-02T14:41:50.181Z,78.06
2023-12-02T14:44:56.840Z,77.79
2023-12-02T14:48:06.287Z,78.13
2023-12-02T14:51:11.973Z,77.92
2023-12-02T14:54:15.987Z,77.77
2023-12-02T14:57:22.808Z,78.32
2023-12-02T15:00:28.597Z,78.50
2023-12-02T15:03:33.507Z,78.30
2023-12-02T15:06:41.743Z,77.92
2023-12-02T15:09:46.055Z,77.95
2023-12-02T15:12:51.646Z,77.77
2023-12-02T15:15:56.982Z,78.65
2023-12-02T15:19:10.833Z,78.44
2023-12-02T15:22:22.823Z,78.21
2023-12-02T15:25:26.697Z,78.27
2023-12-02T15:28:50.359Z,79.26
2023-12-02T15:31:55.617Z,78.32
2023-12-02T15:35:00.815Z,78.59
2023-12-02T15:38:04.768Z,78.34
2023-12-02T15:41:09.722Z,78.23
2023-12-02T15:44:13.576Z,78.90
2023-12-02T15:47:18.946Z,78.26
2023-12-02T15:50:23.035Z,78.60
2023-12-02T15:53:27.982Z,78.82
2023-12-02T15:56:33.381Z,78.79
2023-12-02T15:59:38.580Z,78.75
2023-12-02T16:02:47.450Z,78.69
2023-12-02T16:05:52.481Z,78.46
2023-12-02T16:08:56.441Z,79.04
2023-12-02T16:12:00.712Z,78.56
2023-12-02T16:15:06.311Z,78.54
2023-12-02T16:18:11.932Z,78.19
2023-12-02T16:21:19.041Z,78.91
2023-12-02T16:24:23.656Z,79.08
2023-12-02T16:27:27.845Z,78.97
2023-12-02T16:30:31.855Z,78.56
2023-12-02T16:33:37.702Z,78.88
2023-12-02T16:36:44.121Z,78.57
2023-12-02T16:39:49.988Z,78.62
2023-12-02T16:42:53.872Z,79.17
2023-12-02T16:46:01.009Z,79.17
2023-12-02T16:49:07.937Z,79.25
2023-12-02T16:52:16.172Z,79.39
2023-12-02T16:55:20.775Z,78.70
2023-12-02T16:58:27.436Z,78.92
2023-12-02T17:01:37.655Z,78.91
2023-12-02T17:04:42.927Z,79.03
2023-12-02T17:07:47.097Z,78.91
2023-12-02T17:10:56.379Z,78.59
2023-12-02T17:14:07.417Z,78.99
2023-12-02T17:17:11.201Z,79.12
2023-12-02T17:20:17.481Z,79.01
2023-12-02T17:23:23.459Z,78.75
2023-12-02T17:26:30.489Z,78.77
2023-12-02T17:29:36.600Z,78.67
2023-12-02T17:32:41.542Z,78.73
2023-12-02T17:35:47.587Z,79.27
2023-12-02T17:38:53.019Z,79.26
2023-12-02T17:41:57.134Z,78.84
2023-12-02T17:45:01.392Z,78.78
2023-12-02T17:48:06.695Z,79.20
2023-12-02T17:51:13.670Z,78.72
2023-12-02T17:54:18.365Z,78.90
2023-12-02T17:57:22.308Z,78.94
2023-12-02T18:00:27.256Z,79.22
2023-12-02T18:03:31.287Z,79.28
2023-12-02T18:06:36.558Z,78.83
2023-12-02T18:09:40.579Z,78.60
2023-12-02T18:12:44.947Z,79.19
2023-12-02T18:15:48.939Z,79.23
2023-12-02T18:18:54.330Z,79.26
2023-12-02T18:22:04.902Z,79.06
2023-12-02T18:25:09.778Z,79.19
2023-12-02T18:28:13.960Z,79.42
2023-12-02T18:31:18.136Z,79.54
2023-12-02T18:34:21.923Z,79.03
2023-12-02T18:37:27.721Z,79.73
2023-12-02T18:40:32.889Z,79.87
2023-12-02T18:43:36.712Z,79.91
2023-12-02T18:46:40.689Z,78.99
2023-12-02T18:49:44.336Z,79.44
2023-12-02T18:52:49.951Z,80.00
2023-12-02T18:55:53.563Z,79.85
2023-12-02T18:58:57.389Z,79.86
2023-12-02T19:02:01.226Z,79.26
2023-12-02T19:05:06.350Z,79.56
2023-12-02T19:08:11.521Z,79.34
2023-12-02T19:11:15.591Z,79.45
2023-12-02T19:14:19.688Z,79.59
2023-12-02T19:17:24.445Z,79.97
2023-12-02T19:20:28.258Z,79.66
2023-12-02T19:23:34.005Z,79.67
2023-12-02T19:26:39.258Z,79.41
2023-12-02T19:29:43.599Z,79.52
2023-12-02T19:32:47.650Z,79.37
2023-12-02T19:35:51.901Z,79.57
2023-12-02T19:38:56.869Z,78.95
2023-12-02T19:42:00.759Z,79.29
2023-12-02T19:45:04.729Z,79.67
2023-12-02T19:48:09.430Z,79.38
2023-12-02T19:51:13.636Z,79.33
2023-12-02T19:54:19.374Z,79.60
2023-12-02T19:57:25.574Z,79.26
2023-12-02T20:00:30.152Z,79.83
2023-12-02T20:03:33.783Z,79.44
2023-12-02T20:06:38.017Z,79.52
2023-12-02T20:09:43.206Z,79.72
2023-12-02T20:12:49.760Z,79.68
2023-12-02T20:15:54.630Z,79.48
2023-12-02T20:18:58.910Z,79.57
2023-12-02T20:22:02.929Z,79.58
2023-12-02T20:25:09.562Z,79.72
2023-12-02T20:28:13.292Z,79.63
2023-12-02T20:31:17.375Z,79.43
2023-12-02T20:34:21.006Z,79.81
2023-12-02T20:37:24.876Z,79.61
2023-12-02T20:40:30.004Z,79.75
2023-12-02T20:43:34.825Z,79.86
2023-12-02T20:46:40.679Z,79.78
2023-12-02T20:49:44.445Z,79.59
2023-12-02T20:52:49.348Z,79.52
2023-12-02T20:55:54.825Z,79.89
2023-12-02T20:58:58.635Z,79.85
2023-12-02T21:02:03.237Z,79.73
2023-12-02T21:05:07.768Z,79.86
2023-12-02T21:08:12.466Z,80.18
2023-12-02T21:11:17.366Z,79.91
2023-12-02T21:14:21.984Z,79.90
2023-12-02T21:17:25.812Z,79.87
2023-12-02T21:20:29.813Z,79.60
2023-12-02T21:23:33.622Z,79.76
2023-12-02T21:26:39.038Z,80.11
2023-12-02T21:29:43.091Z,79.83
2023-12-02T21:32:47.318Z,80.02
2023-12-02T21:35:55.241Z,80.07
2023-12-02T21:38:59.425Z,79.50
2023-12-02T21:42:06.377Z,79.81
2023-12-02T21:45:50.507Z,80.37
2023-12-02T21:48:58.954Z,80.16
2023-12-02T21:52:03.202Z,79.52
2023-12-02T21:55:16.934Z,79.97
2023-12-02T21:58:22.288Z,79.79
2023-12-02T22:01:25.982Z,79.73
2023-12-02T22:04:41.191Z,80.45
2023-12-02T22:07:44.900Z,79.69
2023-12-02T22:10:49.089Z,79.99
2023-12-02T22:13:54.171Z,79.61
2023-12-02T22:17:01.277Z,79.79
2023-12-02T22:20:10.660Z,79.72
2023-12-02T22:23:15.973Z,79.54
2023-12-02T22:26:19.621Z,80.18
2023-12-02T22:29:30.314Z,79.84
2023-12-02T22:32:34.413Z,79.64
2023-12-02T22:35:41.117Z,79.84
2023-12-02T22:38:47.319Z,79.94
2023-12-02T22:41:52.271Z,79.70
2023-12-02T22:44:57.883Z,79.88
2023-12-02T22:48:02.316Z,79.97
2023-12-02T22:51:07.320Z,79.88
2023-12-02T22:54:11.919Z,80.27
2023-12-02T22:57:15.778Z,79.84
2023-12-02T23:00:33.811Z,79.74
2023-12-02T23:03:41.149Z,79.99
2023-12-02T23:06:45.480Z,80.24
2023-12-02T23:09:51.626Z,80.41
2023-12-02T23:12:58.915Z,79.88
2023-12-02T23:16:07.650Z,79.95
2023-12-02T23:19:25.775Z,80.27
2023-12-02T23:22:29.588Z,80.04
2023-12-02T23:25:33.632Z,80.40
2023-12-02T23:28:38.474Z,79.76
2023-12-02T23:31:45.117Z,79.84
2023-12-02T23:34:56.002Z,79.81
2023-12-02T23:38:00.134Z,79.81
2023-12-02T23:41:04.252Z,79.50
2023-12-02T23:44:10.897Z,79.86
2023-12-02T23:47:18.944Z,80.13
2023-12-02T23:50:24.180Z,80.37
2023-12-02T23:53:27.822Z,79.59
2023-12-02T23:56:31.996Z,79.96
2023-12-02T23:59:35.534Z,80.21
